MHU weather

Mount Hotham Airport
Mount Hotham, Victoria, Australia

Public forecast

Using degrees Celsius for public forecast. Weather courtesy of forecast.io.

Closest aviation weather report (METAR) to Mount Hotham Airport

Closest report is Albury Airport, 61.6 nm (114.0 km) NNW. Retrieved 2020/04/02 08:00 UTC (16 minutes ago):

YMAY 020800Z AUTO 28009KT 9999 // OVC041 18/13 Q1009

Closest aviation forecast (TAF) to Mount Hotham Airport

Forecast is more than 12 hours old.

Closest forecast is Wangaratta Airport, 62.3 nm (115.4 km) NW. Retrieved 2020-04-01 02:33 UTC (1 day ago):

TAF YWGT 010119Z 0102/0114 05006KT CAVOK FM010900 12004KT CAVOK